Time;durP1;ratioP1;P1;durP2;ratioP2;P2;SDS_P1;SDS_P2;PMS_P1;PMS_P2;Temp;Humidity;BMP_temperature;BMP_pressure;BME280_temperature;BME280_humidity;BME280_pressure;Samples;Min_cycle;Max_cycle;Signal;HPM_P1;HPM_P2
2024/01/24 00:02:15;;;;;;;;;;;;;;;;;;6031725;23;89458;-66
2024/01/24 00:04:41;;;;;;;;;;;;;;;;;;6031147;23;89721;-65
2024/01/24 00:07:06;;;;;;;;;;;;;;;;;;6031452;23;89909;-65
2024/01/24 00:09:33;;;;;;;;;;;;;;;;;;6031941;23;89634;-65
2024/01/24 00:11:58;;;;;;;;;;;;;;;;;;6031474;23;89640;-65
2024/01/24 00:14:23;;;;;;;;;;;;;;;;;;6028900;23;89833;-65
2024/01/24 00:16:49;;;;;;;;;;;;;;;;;;6031901;23;89632;-65
2024/01/24 00:19:14;;;;;;;;;;;;;;;;;;6032061;23;89721;-65
2024/01/24 00:21:39;;;;;;;;;;;;;;;;;;6034377;23;89292;-65
2024/01/24 00:24:04;;;;;;;;;;;;;;;;;;6031397;23;89483;-65
2024/01/24 00:26:30;;;;;;;;;;;;;;;;;;6030998;23;89264;-65
2024/01/24 00:28:55;;;;;;;;;;;;;;;;;;6031153;23;89304;-65
2024/01/24 00:31:20;;;;;;;;;;;;;;;;;;6030850;23;89974;-65
2024/01/24 00:33:45;;;;;;;;;;;;;;;;;;6031139;23;89449;-65
2024/01/24 00:36:10;;;;;;;;;;;;;;;;;;6030965;23;89379;-65
2024/01/24 00:38:36;;;;;;;;;;;;;;;;;;6030801;23;89628;-65
2024/01/24 00:41:01;;;;;;;;;;;;;;;;;;6030556;23;89885;-65
2024/01/24 00:43:26;;;;;;;;;;;;;;;;;;6033586;23;89702;-65
2024/01/24 00:45:51;;;;;;;;;;;;;;;;;;6053014;23;91865;-65
2024/01/24 00:48:17;;;;;;;;;;;;;;;;;;6031841;23;88984;-65
2024/01/24 00:50:42;;;;;;;;;;;;;;;;;;6031393;23;89868;-65
2024/01/24 00:53:07;;;;;;;;;;;;;;;;;;6028696;23;91695;-65
2024/01/24 00:55:32;;;;;;;;;;;;;;;;;;6030461;23;89383;-65
2024/01/24 00:57:58;;;;;;;;;;;;;;;;;;6031268;23;89345;-65
2024/01/24 01:00:24;;;;;;;;;;;;;;;;;;6030930;23;89226;-65
2024/01/24 01:02:49;;;;;;;;;;;;;;;;;;6031004;23;89835;-65
2024/01/24 01:05:14;;;;;;;;;;;;;;;;;;6034618;23;90054;-65
2024/01/24 01:07:39;;;;;;;;;;;;;;;;;;6031901;23;89290;-65
2024/01/24 01:10:08;;;;;;;;;;;;;;;;;;6053861;23;92634;-65
2024/01/24 01:12:33;;;;;;;;;;;;;;;;;;6031373;23;91509;-65
2024/01/24 01:14:59;;;;;;;;;;;;;;;;;;6031808;23;89496;-65
2024/01/24 01:17:24;;;;;;;;;;;;;;;;;;6032735;23;90331;-65
2024/01/24 01:19:49;;;;;;;;;;;;;;;;;;6032540;23;89367;-65
2024/01/24 01:22:14;;;;;;;;;;;;;;;;;;6032086;23;89437;-65
2024/01/24 01:24:39;;;;;;;;;;;;;;;;;;6031309;23;90914;-65
2024/01/24 01:27:05;;;;;;;;;;;;;;;;;;6035421;23;89394;-64
2024/01/24 01:29:30;;;;;;;;;;;;;;;;;;6031446;23;90105;-65
2024/01/24 01:31:55;;;;;;;;;;;;;;;;;;6032100;23;89483;-65
2024/01/24 01:34:20;;;;;;;;;;;;;;;;;;6031694;23;89359;-65
2024/01/24 01:36:45;;;;;;;;;;;;;;;;;;6032118;23;89436;-65
2024/01/24 01:39:11;;;;;;;;;;;;;;;;;;6031895;23;89531;-65
2024/01/24 01:41:36;;;;;;;;;;;;;;;;;;6032242;23;89350;-65
2024/01/24 01:44:02;;;;;;;;;;;;;;;;;;6032343;23;89670;-65
2024/01/24 01:46:27;;;;;;;;;;;;;;;;;;6057726;23;91699;-66
2024/01/24 01:48:55;;;;;;;;;;;;;;;;;;6033058;23;89436;-65
2024/01/24 01:51:20;;;;;;;;;;;;;;;;;;6032737;23;89519;-65
2024/01/24 01:53:47;;;;;;;;;;;;;;;;;;6031837;23;89352;-65
2024/01/24 01:56:15;;;;;;;;;;;;;;;;;;6031458;23;90384;-66
2024/01/24 01:58:40;;;;;;;;;;;;;;;;;;6030990;23;89785;-65
2024/01/24 02:01:06;;;;;;;;;;;;;;;;;;6031655;23;89428;-65
2024/01/24 02:03:31;;;;;;;;;;;;;;;;;;6031336;23;89326;-65
2024/01/24 02:05:57;;;;;;;;;;;;;;;;;;6032061;23;89281;-65
2024/01/24 02:08:22;;;;;;;;;;;;;;;;;;6058037;23;89493;-65
2024/01/24 02:10:47;;;;;;;;;;;;;;;;;;6053691;23;91514;-65
2024/01/24 02:13:12;;;;;;;;;;;;;;;;;;6031352;23;89237;-65
2024/01/24 02:15:37;;;;;;;;;;;;;;;;;;6054380;23;92171;-65
2024/01/24 02:18:03;;;;;;;;;;;;;;;;;;6031861;23;89264;-65
2024/01/24 02:20:29;;;;;;;;;;;;;;;;;;6031569;23;90282;-65
2024/01/24 02:22:54;;;;;;;;;;;;;;;;;;6031984;23;89604;-64
2024/01/24 02:25:19;;;;;;;;;;;;;;;;;;6031832;23;89823;-65
2024/01/24 02:27:44;;;;;;;;;;;;;;;;;;6031933;23;89636;-65
2024/01/24 02:30:10;;;;;;;;;;;;;;;;;;6034144;23;89704;-65
2024/01/24 02:32:35;;;;;;;;;;;;;;;;;;6054084;23;90074;-65
2024/01/24 02:35:00;;;;;;;;;;;;;;;;;;6032008;23;90009;-65
2024/01/24 02:37:27;;;;;;;;;;;;;;;;;;6054791;23;90919;-65
2024/01/24 02:39:52;;;;;;;;;;;;;;;;;;6032805;23;90505;-65
2024/01/24 02:42:18;;;;;;;;;;;;;;;;;;6031790;23;89709;-65
2024/01/24 02:44:43;;;;;;;;;;;;;;;;;;6031319;23;90456;-65
2024/01/24 02:47:09;;;;;;;;;;;;;;;;;;6031331;23;89008;-65
2024/01/24 02:49:34;;;;;;;;;;;;;;;;;;6031691;23;90012;-65
2024/01/24 02:52:02;;;;;;;;;;;;;;;;;;6035328;23;89234;-65
2024/01/24 02:54:27;;;;;;;;;;;;;;;;;;6032249;23;90005;-65
2024/01/24 02:56:52;;;;;;;;;;;;;;;;;;6029811;23;91915;-65
2024/01/24 02:59:18;;;;;;;;;;;;;;;;;;6029991;23;90236;-65
2024/01/24 03:01:43;;;;;;;;;;;;;;;;;;6032204;23;89949;-66
2024/01/24 03:04:08;;;;;;;;;;;;;;;;;;6031950;23;90897;-65
2024/01/24 03:06:33;;;;;;;;;;;;;;;;;;6032267;23;89443;-65
2024/01/24 03:08:59;;;;;;;;;;;;;;;;;;6032555;23;89921;-65
2024/01/24 03:11:24;;;;;;;;;;;;;;;;;;6030364;23;89681;-65
2024/01/24 03:13:49;;;;;;;;;;;;;;;;;;6033087;23;89269;-65
2024/01/24 03:16:14;;;;;;;;;;;;;;;;;;6031051;23;89215;-65
2024/01/24 03:18:40;;;;;;;;;;;;;;;;;;6030690;23;89351;-65
2024/01/24 03:21:05;;;;;;;;;;;;;;;;;;6030654;23;90664;-65
2024/01/24 03:23:31;;;;;;;;;;;;;;;;;;6029052;23;91973;-65
2024/01/24 03:25:56;;;;;;;;;;;;;;;;;;6031844;23;89742;-65
2024/01/24 03:28:21;;;;;;;;;;;;;;;;;;6031647;23;89712;-65
2024/01/24 03:30:46;;;;;;;;;;;;;;;;;;6030868;23;89246;-65
2024/01/24 03:33:12;;;;;;;;;;;;;;;;;;6032261;23;89795;-65
2024/01/24 03:35:37;;;;;;;;;;;;;;;;;;6035632;23;89660;-65
2024/01/24 03:38:04;;;;;;;;;;;;;;;;;;6031969;23;89018;-65
2024/01/24 03:40:29;;;;;;;;;;;;;;;;;;6030272;23;92681;-65
2024/01/24 03:42:54;;;;;;;;;;;;;;;;;;6031608;23;89453;-65
2024/01/24 03:45:19;;;;;;;;;;;;;;;;;;6031295;23;89434;-65
2024/01/24 03:47:45;;;;;;;;;;;;;;;;;;6030970;23;89885;-65
2024/01/24 03:50:10;;;;;;;;;;;;;;;;;;6030733;23;91869;-65
2024/01/24 03:52:35;;;;;;;;;;;;;;;;;;6031255;23;89524;-65
2024/01/24 03:55:00;;;;;;;;;;;;;;;;;;6034792;23;89705;-65
2024/01/24 03:57:25;;;;;;;;;;;;;;;;;;6031112;23;89443;-65
2024/01/24 03:59:51;;;;;;;;;;;;;;;;;;6031196;23;90147;-65
2024/01/24 04:02:16;;;;;;;;;;;;;;;;;;6054535;23;91053;-65
2024/01/24 04:04:41;;;;;;;;;;;;;;;;;;6032015;23;89547;-65
2024/01/24 04:07:06;;;;;;;;;;;;;;;;;;6031918;23;90728;-65
2024/01/24 04:09:32;;;;;;;;;;;;;;;;;;6032300;23;88994;-65
2024/01/24 04:11:57;;;;;;;;;;;;;;;;;;6032310;23;88992;-65
2024/01/24 04:14:22;;;;;;;;;;;;;;;;;;6030834;23;89966;-65
2024/01/24 04:16:48;;;;;;;;;;;;;;;;;;6034718;23;89655;-65
2024/01/24 04:19:13;;;;;;;;;;;;;;;;;;6031205;23;89619;-65
2024/01/24 04:21:43;;;;;;;;;;;;;;;;;;6031770;23;89331;-65
2024/01/24 04:24:08;;;;;;;;;;;;;;;;;;6030781;23;89703;-65
2024/01/24 04:26:33;;;;;;;;;;;;;;;;;;6031762;23;89543;-65
2024/01/24 04:28:58;;;;;;;;;;;;;;;;;;6031753;23;89266;-65
2024/01/24 04:31:24;;;;;;;;;;;;;;;;;;6030677;23;89634;-65
2024/01/24 04:33:49;;;;;;;;;;;;;;;;;;6031571;23;89860;-64
2024/01/24 04:36:14;;;;;;;;;;;;;;;;;;6031366;23;89540;-65
2024/01/24 04:38:39;;;;;;;;;;;;;;;;;;6034351;23;89408;-65
2024/01/24 04:41:05;;;;;;;;;;;;;;;;;;6030753;23;89565;-65
2024/01/24 04:43:30;;;;;;;;;;;;;;;;;;6031705;23;89486;-65
2024/01/24 04:45:55;;;;;;;;;;;;;;;;;;6053285;23;91042;-65
2024/01/24 04:48:21;;;;;;;;;;;;;;;;;;6030723;23;89582;-65
2024/01/24 04:50:46;;;;;;;;;;;;;;;;;;6030956;23;89629;-65
2024/01/24 04:53:12;;;;;;;;;;;;;;;;;;6031224;23;89641;-65
2024/01/24 04:55:37;;;;;;;;;;;;;;;;;;6031001;23;89395;-65
2024/01/24 04:58:02;;;;;;;;;;;;;;;;;;6053924;23;89034;-65
2024/01/24 05:00:28;;;;;;;;;;;;;;;;;;6034197;23;89633;-65
2024/01/24 05:02:53;;;;;;;;;;;;;;;;;;6031125;23;89617;-65
2024/01/24 05:05:18;;;;;;;;;;;;;;;;;;6031591;23;89800;-65
2024/01/24 05:07:44;;;;;;;;;;;;;;;;;;6030575;23;90381;-66
2024/01/24 05:10:09;;;;;;;;;;;;;;;;;;6031472;23;90057;-65
2024/01/24 05:12:34;;;;;;;;;;;;;;;;;;6030637;23;89606;-65
2024/01/24 05:14:59;;;;;;;;;;;;;;;;;;6031305;23;89734;-65
2024/01/24 05:17:25;;;;;;;;;;;;;;;;;;6031058;23;89507;-65
2024/01/24 05:19:50;;;;;;;;;;;;;;;;;;6030679;23;90007;-65
2024/01/24 05:22:16;;;;;;;;;;;;;;;;;;6029579;23;89304;-65
2024/01/24 05:24:46;;;;;;;;;;;;;;;;;;6028994;23;89663;-65
2024/01/24 05:27:12;;;;;;;;;;;;;;;;;;6028281;23;90478;-65
2024/01/24 05:29:37;;;;;;;;;;;;;;;;;;6028950;23;89649;-65
2024/01/24 05:32:02;;;;;;;;;;;;;;;;;;6029262;23;89519;-65
2024/01/24 05:34:28;;;;;;;;;;;;;;;;;;6028875;23;89796;-65
2024/01/24 05:36:53;;;;;;;;;;;;;;;;;;6028848;23;88997;-65
2024/01/24 05:39:19;;;;;;;;;;;;;;;;;;6028585;23;89990;-65
2024/01/24 05:41:44;;;;;;;;;;;;;;;;;;6028774;23;91285;-65
2024/01/24 05:44:10;;;;;;;;;;;;;;;;;;6032432;23;89500;-65
2024/01/24 05:46:35;;;;;;;;;;;;;;;;;;6028880;23;90139;-65
2024/01/24 05:49:00;;;;;;;;;;;;;;;;;;6051731;23;89637;-65
2024/01/24 05:51:25;;;;;;;;;;;;;;;;;;6029758;23;90511;-65
2024/01/24 05:53:51;;;;;;;;;;;;;;;;;;6030564;23;89561;-65
2024/01/24 05:56:16;;;;;;;;;;;;;;;;;;6031083;23;89712;-66
2024/01/24 05:58:41;;;;;;;;;;;;;;;;;;6030733;23;89548;-65
2024/01/24 06:01:07;;;;;;;;;;;;;;;;;;6028838;23;89681;-65
2024/01/24 06:03:35;;;;;;;;;;;;;;;;;;6033444;23;89428;-64
2024/01/24 06:06:01;;;;;;;;;;;;;;;;;;6030016;23;89783;-65
2024/01/24 06:08:26;;;;;;;;;;;;;;;;;;6030303;23;89348;-65
2024/01/24 06:10:52;;;;;;;;;;;;;;;;;;6029927;23;90616;-63
2024/01/24 06:13:17;;;;;;;;;;;;;;;;;;6029899;23;90425;-65
2024/01/24 06:15:42;;;;;;;;;;;;;;;;;;6029807;23;90086;-66
2024/01/24 06:18:07;;;;;;;;;;;;;;;;;;6029589;23;90070;-65
2024/01/24 06:20:32;;;;;;;;;;;;;;;;;;6030288;23;90254;-66
2024/01/24 06:22:58;;;;;;;;;;;;;;;;;;6030852;23;89930;-65
2024/01/24 06:25:23;;;;;;;;;;;;;;;;;;6034514;23;89641;-65
2024/01/24 06:27:48;;;;;;;;;;;;;;;;;;6029868;23;89672;-65
2024/01/24 06:30:14;;;;;;;;;;;;;;;;;;6030015;23;89736;-65
2024/01/24 06:32:40;;;;;;;;;;;;;;;;;;6029567;23;89974;-72
2024/01/24 06:35:05;;;;;;;;;;;;;;;;;;6029685;23;89627;-65
2024/01/24 06:37:30;;;;;;;;;;;;;;;;;;6030607;23;90128;-65
2024/01/24 06:39:55;;;;;;;;;;;;;;;;;;6030119;23;89373;-65
2024/01/24 06:42:21;;;;;;;;;;;;;;;;;;6030422;23;89068;-65
2024/01/24 06:44:46;;;;;;;;;;;;;;;;;;6030128;23;89624;-65
2024/01/24 06:47:11;;;;;;;;;;;;;;;;;;6033493;23;90148;-65
2024/01/24 06:49:36;;;;;;;;;;;;;;;;;;6029989;23;89609;-65
2024/01/24 06:52:02;;;;;;;;;;;;;;;;;;6030558;23;90209;-65
2024/01/24 06:54:27;;;;;;;;;;;;;;;;;;6030879;23;89849;-65
2024/01/24 06:56:52;;;;;;;;;;;;;;;;;;6031052;23;90033;-73
2024/01/24 06:59:17;;;;;;;;;;;;;;;;;;6031752;23;90164;-70
2024/01/24 07:01:43;;;;;;;;;;;;;;;;;;6030506;23;89028;-70
2024/01/24 07:04:09;;;;;;;;;;;;;;;;;;6029215;23;89626;-72
2024/01/24 07:06:35;;;;;;;;;;;;;;;;;;6030435;23;89511;-73
2024/01/24 07:09:00;;;;;;;;;;;;;;;;;;6031798;23;90636;-70
2024/01/24 07:11:25;;;;;;;;;;;;;;;;;;6029159;23;89565;-69
2024/01/24 07:13:51;;;;;;;;;;;;;;;;;;6051618;23;91255;-68
2024/01/24 07:16:16;;;;;;;;;;;;;;;;;;6029733;23;89863;-69
2024/01/24 07:18:41;;;;;;;;;;;;;;;;;;6029574;23;89417;-68
2024/01/24 07:21:07;;;;;;;;;;;;;;;;;;6029259;23;89141;-68
2024/01/24 07:23:32;;;;;;;;;;;;;;;;;;6052204;23;92173;-69
2024/01/24 07:25:58;;;;;;;;;;;;;;;;;;6029668;23;89259;-69
2024/01/24 07:28:23;;;;;;;;;;;;;;;;;;6052772;23;90816;-71
2024/01/24 07:30:48;;;;;;;;;;;;;;;;;;6032972;23;89491;-70
2024/01/24 07:33:14;;;;;;;;;;;;;;;;;;6029958;23;89589;-70
2024/01/24 07:35:40;;;;;;;;;;;;;;;;;;6030205;23;90069;-70
2024/01/24 07:38:06;;;;;;;;;;;;;;;;;;6029350;23;90043;-70
2024/01/24 07:40:31;;;;;;;;;;;;;;;;;;6052964;23;89544;-70
2024/01/24 07:42:56;;;;;;;;;;;;;;;;;;6029996;23;89892;-70
2024/01/24 07:45:22;;;;;;;;;;;;;;;;;;6052288;23;90779;-71
2024/01/24 07:47:49;;;;;;;;;;;;;;;;;;6028932;23;89828;-70
2024/01/24 07:50:15;;;;;;;;;;;;;;;;;;6028713;23;90531;-70
2024/01/24 07:52:40;;;;;;;;;;;;;;;;;;6031706;23;90258;-68
2024/01/24 07:55:05;;;;;;;;;;;;;;;;;;6051695;23;92226;-69
2024/01/24 07:57:31;;;;;;;;;;;;;;;;;;6029610;23;89379;-71
2024/01/24 07:59:56;;;;;;;;;;;;;;;;;;6030293;23;89416;-68
2024/01/24 08:02:21;;;;;;;;;;;;;;;;;;6028844;23;89588;-68
2024/01/24 08:04:46;;;;;;;;;;;;;;;;;;6030596;23;89893;-72
2024/01/24 08:07:11;;;;;;;;;;;;;;;;;;6027460;23;89915;-71
2024/01/24 08:09:37;;;;;;;;;;;;;;;;;;6030413;23;89617;-74
2024/01/24 08:12:03;;;;;;;;;;;;;;;;;;6034339;23;90179;-67
2024/01/24 08:14:28;;;;;;;;;;;;;;;;;;6030044;23;89659;-68
2024/01/24 08:17:00;;;;;;;;;;;;;;;;;;6029673;23;89345;-67
2024/01/24 08:19:25;;;;;;;;;;;;;;;;;;6030000;23;89249;-73
2024/01/24 08:21:51;;;;;;;;;;;;;;;;;;6027723;23;89807;-69
2024/01/24 08:24:16;;;;;;;;;;;;;;;;;;6029376;23;89482;-70
2024/01/24 08:26:42;;;;;;;;;;;;;;;;;;6029898;23;89678;-71
2024/01/24 08:29:07;;;;;;;;;;;;;;;;;;6029926;23;89778;-71
2024/01/24 08:31:32;;;;;;;;;;;;;;;;;;6029882;23;90056;-69
2024/01/24 08:33:58;;;;;;;;;;;;;;;;;;6033031;23;88993;-70
2024/01/24 08:36:23;;;;;;;;;;;;;;;;;;6029752;23;89164;-67
2024/01/24 08:38:48;;;;;;;;;;;;;;;;;;6030341;23;89429;-68
2024/01/24 08:41:13;;;;;;;;;;;;;;;;;;6030532;23;89715;-67
2024/01/24 08:43:39;;;;;;;;;;;;;;;;;;6030741;23;89247;-68
2024/01/24 08:46:04;;;;;;;;;;;;;;;;;;6029693;23;89089;-68
2024/01/24 08:48:29;;;;;;;;;;;;;;;;;;6029062;23;90051;-70
2024/01/24 08:50:55;;;;;;;;;;;;;;;;;;6051897;23;92033;-68
2024/01/24 08:53:20;;;;;;;;;;;;;;;;;;6029290;23;89833;-68
2024/01/24 08:55:45;;;;;;;;;;;;;;;;;;6031741;23;91308;-70
2024/01/24 08:58:11;;;;;;;;;;;;;;;;;;6026976;23;90379;-68
2024/01/24 09:00:36;;;;;;;;;;;;;;;;;;6029620;23;89601;-67
2024/01/24 09:03:01;;;;;;;;;;;;;;;;;;6029114;23;89486;-70
2024/01/24 09:05:27;;;;;;;;;;;;;;;;;;6029477;23;90315;-76
2024/01/24 09:07:53;;;;;;;;;;;;;;;;;;6029530;23;91439;-68
2024/01/24 09:10:18;;;;;;;;;;;;;;;;;;6050841;23;91523;-67
2024/01/24 09:12:43;;;;;;;;;;;;;;;;;;6029336;23;89586;-68
2024/01/24 09:15:09;;;;;;;;;;;;;;;;;;6026936;23;90232;-72
2024/01/24 09:17:35;;;;;;;;;;;;;;;;;;6032577;23;89962;-69
2024/01/24 09:20:00;;;;;;;;;;;;;;;;;;6029322;23;90774;-69
2024/01/24 09:22:25;;;;;;;;;;;;;;;;;;6028876;23;89754;-69
2024/01/24 09:24:51;;;;;;;;;;;;;;;;;;6028437;23;89396;-69
2024/01/24 09:27:16;;;;;;;;;;;;;;;;;;6030628;23;90019;-68
2024/01/24 09:29:41;;;;;;;;;;;;;;;;;;6030126;23;90279;-69
2024/01/24 09:32:06;;;;;;;;;;;;;;;;;;6031411;23;90535;-68
2024/01/24 09:34:32;;;;;;;;;;;;;;;;;;6030879;23;89668;-68
2024/01/24 09:36:57;;;;;;;;;;;;;;;;;;6032265;23;89426;-69
2024/01/24 09:39:25;;;;;;;;;;;;;;;;;;6033139;23;89543;-68
2024/01/24 09:41:51;;;;;;;;;;;;;;;;;;6030952;23;89727;-69
2024/01/24 09:44:16;;;;;;;;;;;;;;;;;;6030090;23;89350;-68
2024/01/24 09:46:42;;;;;;;;;;;;;;;;;;6029970;23;89808;-68
2024/01/24 09:49:08;;;;;;;;;;;;;;;;;;6030265;23;89270;-66
2024/01/24 09:51:34;;;;;;;;;;;;;;;;;;6030353;23;89366;-69
2024/01/24 09:54:05;;;;;;;;;;;;;;;;;;6029954;23;89602;-69
2024/01/24 09:56:32;;;;;;;;;;;;;;;;;;6030769;23;89906;-67
2024/01/24 09:58:57;;;;;;;;;;;;;;;;;;6029834;23;89464;-70
2024/01/24 10:01:24;;;;;;;;;;;;;;;;;;6032235;23;89391;-69
2024/01/24 10:03:50;;;;;;;;;;;;;;;;;;6030243;23;89570;-68
2024/01/24 10:06:15;;;;;;;;;;;;;;;;;;6030985;23;89889;-68
2024/01/24 10:08:41;;;;;;;;;;;;;;;;;;6031308;23;89559;-68
2024/01/24 10:11:06;;;;;;;;;;;;;;;;;;6030105;23;91011;-68
2024/01/24 10:13:31;;;;;;;;;;;;;;;;;;6028715;23;91541;-67
2024/01/24 10:15:59;;;;;;;;;;;;;;;;;;6029258;23;90414;-67
2024/01/24 10:18:24;;;;;;;;;;;;;;;;;;6030806;23;89748;-69
2024/01/24 10:20:49;;;;;;;;;;;;;;;;;;6034699;23;89442;-68
2024/01/24 10:23:15;;;;;;;;;;;;;;;;;;6029445;23;89152;-69
2024/01/24 10:25:43;;;;;;;;;;;;;;;;;;6029979;23;90122;-69
2024/01/24 10:28:12;;;;;;;;;;;;;;;;;;6028838;23;89290;-69
2024/01/24 10:30:39;;;;;;;;;;;;;;;;;;6028598;23;89452;-68
2024/01/24 10:33:04;;;;;;;;;;;;;;;;;;6030637;23;89964;-68
2024/01/24 10:35:29;;;;;;;;;;;;;;;;;;6030180;23;89344;-68
2024/01/24 10:37:55;;;;;;;;;;;;;;;;;;6029929;23;89174;-69
2024/01/24 10:40:21;;;;;;;;;;;;;;;;;;6030019;23;89969;-68
2024/01/24 10:42:49;;;;;;;;;;;;;;;;;;6035137;23;89680;-68
2024/01/24 10:45:15;;;;;;;;;;;;;;;;;;6030468;23;89887;-68
2024/01/24 10:47:41;;;;;;;;;;;;;;;;;;6029960;23;89875;-69
2024/01/24 10:50:09;;;;;;;;;;;;;;;;;;6032617;23;90687;-67
2024/01/24 10:52:35;;;;;;;;;;;;;;;;;;6032302;23;90927;-68
2024/01/24 10:55:03;;;;;;;;;;;;;;;;;;6032674;23;89585;-70
2024/01/24 10:57:33;;;;;;;;;;;;;;;;;;6031027;23;89223;-68
2024/01/24 11:00:01;;;;;;;;;;;;;;;;;;6029647;23;89900;-67
2024/01/24 11:02:28;;;;;;;;;;;;;;;;;;6030420;23;89953;-70
2024/01/24 11:04:55;;;;;;;;;;;;;;;;;;6057625;23;90663;-69
2024/01/24 11:07:24;;;;;;;;;;;;;;;;;;6031578;23;89421;-69
2024/01/24 11:09:56;;;;;;;;;;;;;;;;;;6053875;23;90174;-69
2024/01/24 11:12:22;;;;;;;;;;;;;;;;;;6031988;23;89734;-70
2024/01/24 11:14:47;;;;;;;;;;;;;;;;;;6031130;23;89515;-73
2024/01/24 11:17:12;;;;;;;;;;;;;;;;;;6031944;23;89014;-70
2024/01/24 11:19:38;;;;;;;;;;;;;;;;;;6032422;23;89555;-72
2024/01/24 11:22:10;;;;;;;;;;;;;;;;;;6032249;23;90381;-73
2024/01/24 11:24:45;;;;;;;;;;;;;;;;;;6031161;23;90680;-67
2024/01/24 11:27:26;;;;;;;;;;;;;;;;;;6035020;23;90240;-69
2024/01/24 11:29:52;;;;;;;;;;;;;;;;;;6031359;23;89934;-72
2024/01/24 11:32:36;;;;;;;;;;;;;;;;;;6029589;23;90727;-68
2024/01/24 11:35:20;;;;;;;;;;;;;;;;;;6032219;23;91109;-74
2024/01/24 11:37:45;;;;;;;;;;;;;;;;;;6031621;23;88944;-69
2024/01/24 11:40:11;;;;;;;;;;;;;;;;;;6030997;23;89689;-69
2024/01/24 11:42:36;;;;;;;;;;;;;;;;;;6046714;23;92236;-72
2024/01/24 11:45:20;;;;;;;;;;;;;;;;;;6031275;23;89077;-68
2024/01/24 11:47:46;;;;;;;;;;;;;;;;;;6030244;23;90987;-70
2024/01/24 11:50:11;;;;;;;;;;;;;;;;;;6034192;23;90315;-70
2024/01/24 11:52:37;;;;;;;;;;;;;;;;;;6053262;23;92399;-69
2024/01/24 11:55:02;;;;;;;;;;;;;;;;;;6030935;23;89298;-68
2024/01/24 11:57:29;;;;;;;;;;;;;;;;;;6031559;23;89413;-69
2024/01/24 11:59:55;;;;;;;;;;;;;;;;;;6030087;23;88873;-70
2024/01/24 12:02:20;;;;;;;;;;;;;;;;;;6030581;23;90130;-72
2024/01/24 12:04:49;;;;;;;;;;;;;;;;;;6030361;23;89304;-71
2024/01/24 12:07:14;;;;;;;;;;;;;;;;;;6030385;23;89616;-71
2024/01/24 12:09:41;;;;;;;;;;;;;;;;;;6034713;23;89573;-70
2024/01/24 12:12:07;;;;;;;;;;;;;;;;;;6029098;23;92611;-69
2024/01/24 12:14:33;;;;;;;;;;;;;;;;;;6031125;23;89803;-72
2024/01/24 12:16:58;;;;;;;;;;;;;;;;;;6030900;23;89447;-72
2024/01/24 12:19:25;;;;;;;;;;;;;;;;;;6029056;23;91316;-70
2024/01/24 12:21:51;;;;;;;;;;;;;;;;;;6030623;23;89634;-70
2024/01/24 12:24:17;;;;;;;;;;;;;;;;;;6054164;23;89489;-70
2024/01/24 12:26:42;;;;;;;;;;;;;;;;;;6028381;23;92555;-70
2024/01/24 12:29:07;;;;;;;;;;;;;;;;;;6030971;23;89371;-67
2024/01/24 12:31:33;;;;;;;;;;;;;;;;;;6031490;23;89562;-68
2024/01/24 12:33:59;;;;;;;;;;;;;;;;;;6030671;23;89265;-73
2024/01/24 12:36:24;;;;;;;;;;;;;;;;;;6031364;23;89545;-70
2024/01/24 12:38:54;;;;;;;;;;;;;;;;;;6028963;23;90445;-69
2024/01/24 12:41:20;;;;;;;;;;;;;;;;;;6029998;23;89959;-70
2024/01/24 12:43:45;;;;;;;;;;;;;;;;;;6029086;23;89120;-66
2024/01/24 12:46:11;;;;;;;;;;;;;;;;;;6030032;23;89599;-68
2024/01/24 12:48:36;;;;;;;;;;;;;;;;;;6031094;23;89786;-69
2024/01/24 12:51:02;;;;;;;;;;;;;;;;;;6030722;23;89266;-68
2024/01/24 12:53:27;;;;;;;;;;;;;;;;;;6033118;23;89534;-68
2024/01/24 12:55:52;;;;;;;;;;;;;;;;;;6052072;23;90433;-70
2024/01/24 12:58:17;;;;;;;;;;;;;;;;;;6029934;23;90008;-68
2024/01/24 13:00:43;;;;;;;;;;;;;;;;;;6029124;23;89483;-68
2024/01/24 13:03:08;;;;;;;;;;;;;;;;;;6030128;23;89662;-69
2024/01/24 13:05:33;;;;;;;;;;;;;;;;;;6030883;23;89654;-69
2024/01/24 13:07:58;;;;;;;;;;;;;;;;;;6029382;23;89766;-69
2024/01/24 13:10:25;;;;;;;;;;;;;;;;;;6030595;23;89403;-69
2024/01/24 13:12:51;;;;;;;;;;;;;;;;;;6030250;23;89431;-70
2024/01/24 13:15:17;;;;;;;;;;;;;;;;;;6033987;23;89680;-70
2024/01/24 13:17:42;;;;;;;;;;;;;;;;;;6029658;23;89572;-68
2024/01/24 13:20:09;;;;;;;;;;;;;;;;;;6030086;23;89792;-69
2024/01/24 13:22:34;;;;;;;;;;;;;;;;;;6030545;23;89799;-66
2024/01/24 13:24:59;;;;;;;;;;;;;;;;;;6029770;23;89504;-69
2024/01/24 13:27:24;;;;;;;;;;;;;;;;;;6028836;23;89205;-67
2024/01/24 13:29:50;;;;;;;;;;;;;;;;;;6029273;23;89669;-72
2024/01/24 13:32:15;;;;;;;;;;;;;;;;;;6031407;23;89940;-68
2024/01/24 13:34:40;;;;;;;;;;;;;;;;;;6028811;23;92410;-67
2024/01/24 13:37:06;;;;;;;;;;;;;;;;;;6034540;23;89064;-70
2024/01/24 13:39:31;;;;;;;;;;;;;;;;;;6029861;23;90182;-70
2024/01/24 13:41:57;;;;;;;;;;;;;;;;;;6030486;23;90561;-69
2024/01/24 13:44:22;;;;;;;;;;;;;;;;;;6029649;23;89483;-71
2024/01/24 13:46:48;;;;;;;;;;;;;;;;;;6029235;23;91118;-68
2024/01/24 13:49:13;;;;;;;;;;;;;;;;;;6029442;23;89187;-71
2024/01/24 13:51:39;;;;;;;;;;;;;;;;;;6053266;23;91655;-70
2024/01/24 13:54:04;;;;;;;;;;;;;;;;;;6030793;23;90128;-70
2024/01/24 13:56:30;;;;;;;;;;;;;;;;;;6030369;23;89487;-70
2024/01/24 13:58:55;;;;;;;;;;;;;;;;;;6033155;23;89982;-71
2024/01/24 14:01:20;;;;;;;;;;;;;;;;;;6031040;23;89711;-70
2024/01/24 14:03:47;;;;;;;;;;;;;;;;;;6029934;23;89647;-68
2024/01/24 14:06:13;;;;;;;;;;;;;;;;;;6029903;23;89806;-70
2024/01/24 14:08:38;;;;;;;;;;;;;;;;;;6029905;23;89619;-69
2024/01/24 14:11:04;;;;;;;;;;;;;;;;;;6030119;23;90223;-69
2024/01/24 14:13:29;;;;;;;;;;;;;;;;;;6031459;23;89629;-69
2024/01/24 14:15:54;;;;;;;;;;;;;;;;;;6030751;23;89111;-69
2024/01/24 14:18:19;;;;;;;;;;;;;;;;;;6034663;23;89745;-70
2024/01/24 14:20:45;;;;;;;;;;;;;;;;;;6031108;23;89592;-70
2024/01/24 14:23:10;;;;;;;;;;;;;;;;;;6031417;23;89599;-68
2024/01/24 14:25:36;;;;;;;;;;;;;;;;;;6055203;23;92015;-72
2024/01/24 14:28:01;;;;;;;;;;;;;;;;;;6054120;23;90627;-71
2024/01/24 14:30:26;;;;;;;;;;;;;;;;;;6053974;23;92568;-71
2024/01/24 14:32:51;;;;;;;;;;;;;;;;;;6031120;23;89697;-69
2024/01/24 14:35:17;;;;;;;;;;;;;;;;;;6031809;23;89369;-70
2024/01/24 14:37:42;;;;;;;;;;;;;;;;;;6031074;23;89993;-70
2024/01/24 14:40:08;;;;;;;;;;;;;;;;;;6034637;23;89371;-70
2024/01/24 14:42:33;;;;;;;;;;;;;;;;;;6032256;23;89641;-69
2024/01/24 14:45:00;;;;;;;;;;;;;;;;;;6031369;23;89621;-70
2024/01/24 14:47:25;;;;;;;;;;;;;;;;;;6031163;23;89008;-69
2024/01/24 14:49:50;;;;;;;;;;;;;;;;;;6031160;23;89665;-69
2024/01/24 14:52:16;;;;;;;;;;;;;;;;;;6030709;23;89890;-71
2024/01/24 14:54:41;;;;;;;;;;;;;;;;;;6030391;23;89590;-69
2024/01/24 14:57:07;;;;;;;;;;;;;;;;;;6031450;23;91033;-69
2024/01/24 14:59:32;;;;;;;;;;;;;;;;;;6030917;23;90091;-70
2024/01/24 15:01:58;;;;;;;;;;;;;;;;;;6034560;23;89201;-68
2024/01/24 15:04:23;;;;;;;;;;;;;;;;;;6053330;23;91753;-69
2024/01/24 15:06:49;;;;;;;;;;;;;;;;;;6031067;23;89034;-70
2024/01/24 15:09:15;;;;;;;;;;;;;;;;;;6031418;23;89691;-68
2024/01/24 15:11:40;;;;;;;;;;;;;;;;;;6029414;23;89628;-67
2024/01/24 15:14:05;;;;;;;;;;;;;;;;;;6029546;23;89359;-68
2024/01/24 15:16:30;;;;;;;;;;;;;;;;;;6029719;23;90692;-67
2024/01/24 15:18:56;;;;;;;;;;;;;;;;;;6028551;23;90772;-68
2024/01/24 15:21:21;;;;;;;;;;;;;;;;;;6031170;23;89657;-67
2024/01/24 15:23:46;;;;;;;;;;;;;;;;;;6033969;23;90172;-67
2024/01/24 15:26:11;;;;;;;;;;;;;;;;;;6052746;23;89905;-67
2024/01/24 15:28:37;;;;;;;;;;;;;;;;;;6030345;23;89035;-68
2024/01/24 15:31:02;;;;;;;;;;;;;;;;;;6027949;23;90176;-68
2024/01/24 15:33:31;;;;;;;;;;;;;;;;;;6029868;23;89606;-68
2024/01/24 15:35:56;;;;;;;;;;;;;;;;;;6030947;23;90408;-68
2024/01/24 15:38:22;;;;;;;;;;;;;;;;;;6031682;23;89823;-68
2024/01/24 15:40:47;;;;;;;;;;;;;;;;;;6053339;23;89610;-68
2024/01/24 15:43:12;;;;;;;;;;;;;;;;;;6030607;23;89434;-67
2024/01/24 15:45:38;;;;;;;;;;;;;;;;;;6054866;23;91682;-68
2024/01/24 15:48:03;;;;;;;;;;;;;;;;;;6030658;23;89565;-67
2024/01/24 15:50:29;;;;;;;;;;;;;;;;;;6031073;23;89593;-68
2024/01/24 15:52:54;;;;;;;;;;;;;;;;;;6029808;23;89858;-67
2024/01/24 15:55:19;;;;;;;;;;;;;;;;;;6030285;23;89175;-67
2024/01/24 15:57:44;;;;;;;;;;;;;;;;;;6030988;23;89173;-67
2024/01/24 16:00:10;;;;;;;;;;;;;;;;;;6029919;23;89297;-68
2024/01/24 16:02:36;;;;;;;;;;;;;;;;;;6031495;23;90148;-67
2024/01/24 16:05:06;;;;;;;;;;;;;;;;;;6052789;23;92355;-68
2024/01/24 16:07:32;;;;;;;;;;;;;;;;;;6034797;23;90845;-74
2024/01/24 16:09:57;;;;;;;;;;;;;;;;;;6051944;23;91221;-67
2024/01/24 16:12:22;;;;;;;;;;;;;;;;;;6030101;23;89780;-67
2024/01/24 16:14:48;;;;;;;;;;;;;;;;;;6029208;23;89966;-67
2024/01/24 16:17:13;;;;;;;;;;;;;;;;;;6029951;23;89405;-67
2024/01/24 16:19:39;;;;;;;;;;;;;;;;;;6030039;23;89657;-67
2024/01/24 16:22:04;;;;;;;;;;;;;;;;;;6052771;23;90514;-67
2024/01/24 16:24:30;;;;;;;;;;;;;;;;;;6030119;23;89374;-67
2024/01/24 16:26:55;;;;;;;;;;;;;;;;;;6033649;23;89232;-67
2024/01/24 16:29:20;;;;;;;;;;;;;;;;;;6028899;23;90321;-67
2024/01/24 16:31:45;;;;;;;;;;;;;;;;;;6030415;23;89601;-67
2024/01/24 16:34:11;;;;;;;;;;;;;;;;;;6029440;23;90922;-68
2024/01/24 16:36:36;;;;;;;;;;;;;;;;;;6031039;23;89458;-67